Time;durP1;ratioP1;P1;durP2;ratioP2;P2;SDS_P1;SDS_P2;PMS_P1;PMS_P2;Temp;Humidity;BMP_temperature;BMP_pressure;BME280_temperature;BME280_humidity;BME280_pressure;Samples;Min_cycle;Max_cycle;Signal;HPM_P1;HPM_P2
2021/04/28 07:30:38;;;;;;;5.78;1.30;;;11.80;99.90;;;;;;5892229;23;20828;-85
2021/04/28 07:33:05;;;;;;;5.13;1.05;;;11.90;99.90;;;;;;4917610;29;20498;-82
2021/04/28 07:35:32;;;;;;;8.20;1.23;;;11.80;99.90;;;;;;4911929;29;20062;-83
2021/04/28 07:37:58;;;;;;;4.70;1.20;;;11.70;99.90;;;;;;4911593;29;20127;-84
2021/04/28 07:40:25;;;;;;;3.13;1.10;;;11.60;99.90;;;;;;4912540;29;20115;-83
2021/04/28 07:42:51;;;;;;;7.30;1.50;;;11.50;99.90;;;;;;4924439;29;20063;-83
2021/04/28 07:45:19;;;;;;;10.25;1.30;;;11.40;99.90;;;;;;4911386;29;20486;-82
2021/04/28 07:47:47;;;;;;;5.25;0.95;;;11.30;99.90;;;;;;4930139;29;20430;-83
2021/04/28 07:50:16;;;;;;;6.65;1.20;;;11.20;99.90;;;;;;4913789;29;20123;-82
2021/04/28 07:52:43;;;;;;;9.63;1.30;;;11.10;99.90;;;;;;4934179;29;20054;-83
2021/04/28 07:55:11;;;;;;;5.68;1.25;;;11.10;99.90;;;;;;4915712;29;20522;-83
2021/04/28 07:57:38;;;;;;;3.55;1.08;;;11.10;99.90;;;;;;4917184;29;20070;-84
2021/04/28 08:00:07;;;;;;;9.90;1.27;;;11.10;99.90;;;;;;4933100;29;20054;-84
2021/04/28 08:02:34;;;;;;;4.00;1.00;;;11.30;99.90;;;;;;4916479;29;20110;-83
2021/04/28 08:05:00;;;;;;;6.78;1.42;;;11.50;99.90;;;;;;4934087;28;20051;-84
2021/04/28 08:07:27;;;;;;;5.65;1.02;;;11.80;99.90;;;;;;4932404;29;20389;-83
2021/04/28 08:09:53;;;;;;;3.40;1.05;;;12.10;99.90;;;;;;4915925;29;20047;-83
2021/04/28 08:12:20;;;;;;;6.85;1.08;;;12.10;99.90;;;;;;4931549;29;20459;-83
2021/04/28 08:14:46;;;;;;;6.47;1.08;;;12.00;99.90;;;;;;4915027;29;20055;-84
2021/04/28 08:17:13;;;;;;;5.68;0.90;;;11.90;99.90;;;;;;4908219;29;20126;-83
2021/04/28 08:19:39;;;;;;;5.75;1.05;;;11.80;99.90;;;;;;4931086;29;20048;-83
2021/04/28 08:22:10;;;;;;;4.43;0.90;;;11.60;99.90;;;;;;4931514;28;20043;-83
2021/04/28 08:24:36;;;;;;;4.22;0.68;;;11.40;99.90;;;;;;4932151;28;20052;-83
2021/04/28 08:27:03;;;;;;;5.82;1.05;;;11.30;99.90;;;;;;4931130;29;20050;-84
2021/04/28 08:29:29;;;;;;;5.80;1.00;;;11.20;99.90;;;;;;4915754;29;20044;-84
2021/04/28 08:31:56;;;;;;;5.45;0.93;;;11.20;99.90;;;;;;4913520;29;20064;-83
2021/04/28 08:34:23;;;;;;;5.85;1.23;;;11.20;99.90;;;;;;4912347;28;20043;-83
2021/04/28 08:36:50;;;;;;;5.40;1.02;;;11.20;99.90;;;;;;4912006;29;20127;-85
2021/04/28 08:39:16;;;;;;;2.95;0.95;;;11.20;99.90;;;;;;4910534;28;20579;-86
2021/04/28 08:41:44;;;;;;;4.85;1.20;;;11.20;99.90;;;;;;4910699;29;20529;-85
2021/04/28 08:44:10;;;;;;;7.88;1.00;;;11.20;99.90;;;;;;4911324;28;20094;-85
2021/04/28 08:46:37;;;;;;;7.97;1.60;;;11.30;99.90;;;;;;4910484;29;20075;-84
2021/04/28 08:49:05;;;;;;;4.40;1.10;;;11.40;99.90;;;;;;4911566;28;20067;-82
2021/04/28 08:51:32;;;;;;;4.65;1.10;;;11.60;99.90;;;;;;4915990;29;20048;-85
2021/04/28 08:53:59;;;;;;;6.72;1.55;;;11.70;99.90;;;;;;4911016;29;20475;-85
2021/04/28 08:56:25;;;;;;;5.10;1.20;;;11.70;99.90;;;;;;4911971;28;20103;-87
2021/04/28 08:58:54;;;;;;;11.15;1.55;;;11.80;99.90;;;;;;4911936;29;20052;-84
2021/04/28 09:01:34;;;;;;;4.47;0.80;;;11.80;99.90;;;;;;4912083;29;20056;-84
2021/04/28 09:04:11;;;;;;;4.60;0.80;;;11.80;99.90;;;;;;4941944;28;20103;-83
2021/04/28 09:06:38;;;;;;;4.57;1.20;;;11.90;99.90;;;;;;4916008;28;20111;-84
2021/04/28 09:09:07;;;;;;;5.72;0.90;;;12.10;99.90;;;;;;4914868;29;20515;-84
2021/04/28 09:11:40;;;;;;;6.88;1.40;;;12.30;99.90;;;;;;4911198;29;20044;-83
2021/04/28 09:14:12;;;;;;;3.65;0.85;;;12.40;99.90;;;;;;4910467;28;20522;-83
2021/04/28 09:16:42;;;;;;;3.60;0.70;;;12.50;99.90;;;;;;4911539;29;20060;-83
2021/04/28 09:19:20;;;;;;;4.03;1.10;;;12.50;99.90;;;;;;4909677;29;20132;-82
2021/04/28 09:21:55;;;;;;;4.35;1.00;;;12.30;99.90;;;;;;4910454;29;20111;-84
2021/04/28 09:24:28;;;;;;;5.43;1.00;;;12.30;99.90;;;;;;4908912;28;20067;-83
2021/04/28 09:27:32;;;;;;;3.88;1.23;;;12.30;99.90;;;;;;4940264;28;20467;-84
2021/04/28 09:30:23;;;;;;;5.57;0.85;;;12.40;99.90;;;;;;4881465;29;20058;-82
2021/04/28 09:33:02;;;;;;;5.40;1.00;;;12.40;99.90;;;;;;4926971;29;20410;-83
2021/04/28 09:35:29;;;;;;;6.05;1.17;;;12.60;99.90;;;;;;4911616;29;20127;-84
2021/04/28 09:38:03;;;;;;;5.35;0.93;;;12.80;99.90;;;;;;4913935;29;20060;-82
2021/04/28 09:40:55;;;;;;;2.30;0.70;;;13.10;99.90;;;;;;4911300;29;20043;-85
2021/04/28 09:43:32;;;;;;;3.22;0.70;;;13.30;99.90;;;;;;4912661;29;20055;-85
2021/04/28 09:45:58;;;;;;;3.65;0.65;;;13.50;99.90;;;;;;4912104;29;20050;-84
2021/04/28 09:48:25;;;;;;;1.10;0.45;;;13.40;99.90;;;;;;4912627;29;20406;-85
2021/04/28 09:51:05;;;;;;;2.28;0.50;;;13.20;98.40;;;;;;4932111;28;20051;-84
2021/04/28 09:53:32;;;;;;;1.38;0.50;;;12.90;98.40;;;;;;4911118;29;20558;-84
2021/04/28 09:55:59;;;;;;;1.35;0.35;;;12.80;98.90;;;;;;4913603;29;20114;-86
2021/04/28 09:58:52;;;;;;;0.80;0.40;;;12.80;98.00;;;;;;4912589;29;20490;-84
2021/04/28 10:01:33;;;;;;;0.77;0.47;;;12.90;98.20;;;;;;4929392;29;20430;-83
2021/04/28 10:04:00;;;;;;;0.88;0.45;;;13.10;98.10;;;;;;4913423;29;20408;-83
2021/04/28 10:06:47;;;;;;;1.52;0.45;;;13.30;98.10;;;;;;4930394;28;20091;-83
2021/04/28 10:09:43;;;;;;;1.88;0.30;;;13.30;97.10;;;;;;4915542;29;20052;-85
2021/04/28 10:12:13;;;;;;;2.03;0.50;;;13.40;96.90;;;;;;4914666;29;20051;-86
2021/04/28 10:14:40;;;;;;;0.95;0.30;;;13.50;97.00;;;;;;4911902;29;20084;-84
2021/04/28 10:17:08;;;;;;;0.90;0.45;;;13.60;96.70;;;;;;4914854;29;20056;-84
2021/04/28 10:19:37;;;;;;;0.90;0.30;;;13.70;96.30;;;;;;4915674;29;20044;-84
2021/04/28 10:22:10;;;;;;;1.38;0.32;;;13.60;95.70;;;;;;4913829;29;20107;-83
2021/04/28 10:24:39;;;;;;;0.50;0.40;;;13.60;95.50;;;;;;4915755;29;20127;-85
2021/04/28 10:27:10;;;;;;;2.70;0.50;;;13.70;95.50;;;;;;4931103;29;20571;-85
2021/04/28 10:29:38;;;;;;;1.65;0.30;;;13.70;95.70;;;;;;4932432;29;20379;-85
2021/04/28 10:32:07;;;;;;;0.77;0.30;;;13.70;95.40;;;;;;4931235;28;20059;-83
2021/04/28 10:34:58;;;;;;;1.60;0.40;;;13.90;95.30;;;;;;4915370;29;20054;-84
2021/04/28 10:37:33;;;;;;;1.42;0.60;;;14.00;95.30;;;;;;4931436;28;20055;-84
2021/04/28 10:40:01;;;;;;;1.25;0.45;;;14.10;95.30;;;;;;4915174;29;20568;-81
2021/04/28 10:42:39;;;;;;;0.80;0.30;;;14.20;95.40;;;;;;4920463;29;20118;-79
2021/04/28 10:45:37;;;;;;;2.05;0.50;;;14.30;95.70;;;;;;4924107;29;20055;-80
2021/04/28 10:48:37;;;;;;;;;;;14.30;96.10;;;;;;4840513;29;20058;-79
2021/04/28 10:51:04;;;;;;;1.42;0.60;;;14.10;96.90;;;;;;4849290;29;19924;-81
2021/04/28 10:53:30;;;;;;;2.63;0.35;;;13.80;97.10;;;;;;4833808;29;20458;-80
2021/04/28 10:55:58;;;;;;;0.93;0.55;;;13.60;96.30;;;;;;4822778;29;20933;-79
2021/04/28 10:58:30;;;;;;;1.13;0.40;;;13.50;95.90;;;;;;4820474;29;20062;-80
2021/04/28 11:01:00;;;;;;;2.40;0.55;;;13.40;96.00;;;;;;4837761;29;20058;-79
2021/04/28 11:03:36;;;;;;;1.58;0.50;;;13.40;96.10;;;;;;4822982;29;20498;-79
2021/04/28 11:06:26;;;;;;;2.38;0.70;;;13.40;96.10;;;;;;4829698;29;20467;-80
2021/04/28 11:09:03;;;;;;;1.58;0.60;;;13.40;96.50;;;;;;4838623;29;20207;-78
2021/04/28 11:11:33;;;;;;;1.75;0.60;;;13.40;96.60;;;;;;4835681;29;20094;-79
2021/04/28 11:14:08;;;;;;;3.88;0.60;;;13.50;95.80;;;;;;4824441;29;20395;-78
2021/04/28 11:16:43;;;;;;;2.15;0.65;;;13.50;95.30;;;;;;4855340;29;20060;-77
2021/04/28 11:19:32;;;;;;;3.00;0.75;;;13.40;94.30;;;;;;4824950;29;20057;-79
2021/04/28 11:22:24;;;;;;;2.55;0.60;;;13.40;95.40;;;;;;4838972;29;20053;-80
2021/04/28 11:24:58;;;;;;;1.27;0.70;;;13.50;95.50;;;;;;4866223;29;20044;-81
2021/04/28 11:27:55;;;;;;;2.10;0.80;;;13.50;95.00;;;;;;4915740;29;20048;-81
2021/04/28 11:30:30;;;;;;;3.15;0.85;;;13.60;95.00;;;;;;4932003;29;20055;-80
2021/04/28 11:33:17;;;;;;;3.20;0.82;;;13.60;95.60;;;;;;4944505;29;20522;-82
2021/04/28 11:35:53;;;;;;;2.90;0.70;;;13.80;95.10;;;;;;4931903;29;20478;-82
2021/04/28 11:38:22;;;;;;;3.70;0.70;;;13.80;94.70;;;;;;4935984;29;20048;-84
2021/04/28 11:41:00;;;;;;;3.20;0.80;;;13.80;94.00;;;;;;4934890;29;20052;-82
2021/04/28 11:43:28;;;;;;;2.75;0.77;;;13.80;94.30;;;;;;4934908;29;20054;-82
2021/04/28 11:46:03;;;;;;;4.35;1.05;;;13.80;94.30;;;;;;4922394;29;20043;-82
2021/04/28 11:48:31;;;;;;;3.50;0.75;;;13.80;93.30;;;;;;4926173;29;20051;-82
2021/04/28 11:51:05;;;;;;;3.45;0.73;;;13.60;92.80;;;;;;4925686;29;20043;-82
2021/04/28 11:53:31;;;;;;;3.28;0.70;;;13.60;92.90;;;;;;4925126;29;20071;-83
2021/04/28 11:55:59;;;;;;;2.55;0.65;;;13.60;93.00;;;;;;4943754;29;20043;-83
2021/04/28 11:58:33;;;;;;;2.15;0.75;;;13.70;92.30;;;;;;4938413;29;20059;-83
2021/04/28 12:01:05;;;;;;;4.20;0.93;;;13.80;91.30;;;;;;4935652;29;20047;-81
2021/04/28 12:03:56;;;;;;;3.60;1.08;;;13.70;92.40;;;;;;4925756;29;20066;-82
2021/04/28 12:06:25;;;;;;;3.72;0.77;;;13.90;94.10;;;;;;4932035;29;20095;-83
2021/04/28 12:09:16;;;;;;;2.83;0.80;;;13.80;93.40;;;;;;4935605;28;20177;-82
2021/04/28 12:11:47;;;;;;;5.60;0.90;;;13.90;93.70;;;;;;4921099;29;20118;-81
2021/04/28 12:14:22;;;;;;;4.03;0.90;;;14.00;92.70;;;;;;4941329;29;20203;-81
2021/04/28 12:16:56;;;;;;;5.20;0.80;;;14.00;92.90;;;;;;4935527;29;20059;-83
2021/04/28 12:19:25;;;;;;;3.13;0.80;;;13.90;92.90;;;;;;4915837;29;20062;-82
2021/04/28 12:21:52;;;;;;;5.85;1.20;;;13.90;93.70;;;;;;4932946;28;20098;-82
2021/04/28 12:24:33;;;;;;;3.15;0.90;;;13.90;94.10;;;;;;4932436;28;20071;-83
2021/04/28 12:27:08;;;;;;;5.88;0.98;;;14.00;94.20;;;;;;4933073;28;20048;-82
2021/04/28 12:29:39;;;;;;;4.40;1.00;;;14.00;94.40;;;;;;4916409;29;20036;-82
2021/04/28 12:32:10;;;;;;;3.70;1.10;;;14.00;94.90;;;;;;4914100;29;20099;-83
2021/04/28 12:34:38;;;;;;;6.53;1.27;;;14.10;94.70;;;;;;4943834;29;20119;-83
2021/04/28 12:37:14;;;;;;;4.05;0.90;;;14.00;95.00;;;;;;4912656;29;20044;-84
2021/04/28 12:40:12;;;;;;;6.22;1.00;;;14.10;94.00;;;;;;4913520;29;20044;-82
2021/04/28 12:42:40;;;;;;;3.30;0.52;;;14.30;92.40;;;;;;4893713;29;20112;-82
2021/04/28 12:45:13;;;;;;;2.58;0.70;;;14.40;93.10;;;;;;4911927;29;20082;-82
2021/04/28 12:47:40;;;;;;;4.38;0.60;;;14.30;93.40;;;;;;4911681;29;20044;-82
2021/04/28 12:50:11;;;;;;;2.65;1.00;;;14.50;93.70;;;;;;4913236;29;20108;-81
2021/04/28 12:52:42;;;;;;;3.58;0.77;;;14.60;93.70;;;;;;4922590;29;20570;-81
2021/04/28 12:55:30;;;;;;;3.25;0.70;;;14.60;93.10;;;;;;4914481;28;20056;-81
2021/04/28 12:58:09;;;;;;;2.97;0.68;;;14.50;93.60;;;;;;4911381;29;20052;-81
2021/04/28 13:00:45;;;;;;;4.03;0.85;;;14.50;93.90;;;;;;4912532;29;20408;-81
2021/04/28 13:03:23;;;;;;;5.15;0.70;;;14.50;94.30;;;;;;4914424;29;20052;-81
2021/04/28 13:05:57;;;;;;;4.30;0.90;;;14.50;94.10;;;;;;4909144;29;20388;-82
2021/04/28 13:08:27;;;;;;;4.25;0.85;;;14.50;93.60;;;;;;4912299;29;20052;-81
2021/04/28 13:11:26;;;;;;;3.15;0.52;;;14.20;92.90;;;;;;4910845;29;20048;-83
2021/04/28 13:13:56;;;;;;;1.83;0.60;;;14.30;93.30;;;;;;4938983;29;20044;-82
2021/04/28 13:16:30;;;;;;;10.13;1.05;;;14.40;92.60;;;;;;4913705;29;20104;-82
2021/04/28 13:18:58;;;;;;;8.68;0.95;;;14.60;93.00;;;;;;4913527;28;20060;-82
2021/04/28 13:21:30;;;;;;;3.88;0.98;;;14.70;92.50;;;;;;4912650;28;20056;-82
2021/04/28 13:24:11;;;;;;;8.48;1.25;;;14.70;92.90;;;;;;4912829;29;20746;-83
2021/04/28 13:27:02;;;;;;;4.03;0.85;;;14.80;92.40;;;;;;4911654;29;20044;-83
2021/04/28 13:29:48;;;;;;;4.07;1.02;;;14.70;92.70;;;;;;4911373;28;20075;-81
2021/04/28 13:32:43;;;;;;;7.07;1.00;;;14.70;93.10;;;;;;4924185;28;20060;-81
2021/04/28 13:35:16;;;;;;;5.25;0.95;;;14.80;92.80;;;;;;4932306;28;20056;-82
2021/04/28 13:37:50;;;;;;;3.78;0.90;;;14.80;92.50;;;;;;4934187;28;20051;-81
2021/04/28 13:40:23;;;;;;;7.15;1.70;;;14.70;92.10;;;;;;4919227;29;20055;-81
2021/04/28 13:42:54;;;;;;;7.30;0.93;;;14.80;92.60;;;;;;4917649;29;20076;-82
2021/04/28 13:45:21;;;;;;;3.70;0.88;;;14.90;91.90;;;;;;4947885;28;20055;-81
2021/04/28 13:47:50;;;;;;;4.13;0.63;;;14.80;92.20;;;;;;4917497;29;20107;-81
2021/04/28 13:50:18;;;;;;;9.10;1.48;;;14.70;92.10;;;;;;4916677;28;20323;-81
2021/04/28 13:52:44;;;;;;;3.53;1.00;;;14.60;92.60;;;;;;4934218;28;20044;-81
2021/04/28 13:55:11;;;;;;;7.32;1.05;;;14.40;92.20;;;;;;4933559;28;20051;-80
2021/04/28 13:57:38;;;;;;;3.80;0.90;;;14.30;91.60;;;;;;4934373;29;20055;-80
2021/04/28 14:00:06;;;;;;;6.00;1.20;;;14.20;91.90;;;;;;4916512;28;20077;-81
2021/04/28 14:02:32;;;;;;;4.60;1.15;;;14.30;92.20;;;;;;4916877;29;20098;-81
2021/04/28 14:04:59;;;;;;;3.22;1.00;;;14.50;91.90;;;;;;4916837;29;20043;-81
2021/04/28 14:07:26;;;;;;;4.18;1.30;;;14.50;92.20;;;;;;4933459;28;20563;-81
2021/04/28 14:09:52;;;;;;;6.25;1.30;;;14.50;92.80;;;;;;4916769;29;20048;-81
2021/04/28 14:12:19;;;;;;;7.32;1.33;;;14.30;93.30;;;;;;4947618;28;20040;-81
2021/04/28 14:14:45;;;;;;;6.70;1.42;;;14.10;93.80;;;;;;4916870;29;20435;-81
2021/04/28 14:17:12;;;;;;;4.13;1.30;;;13.90;94.20;;;;;;4933308;28;20056;-81
2021/04/28 14:19:38;;;;;;;5.30;1.23;;;13.90;94.40;;;;;;4916963;29;20165;-80
2021/04/28 14:22:08;;;;;;;7.95;1.00;;;14.00;94.90;;;;;;4933238;28;20043;-81
2021/04/28 14:24:35;;;;;;;4.50;1.10;;;14.00;94.60;;;;;;4948771;29;20507;-81
2021/04/28 14:27:01;;;;;;;4.28;0.90;;;14.20;94.00;;;;;;4916543;29;20047;-81
2021/04/28 14:29:29;;;;;;;5.68;1.15;;;14.30;94.20;;;;;;4920262;28;20414;-80
2021/04/28 14:31:55;;;;;;;4.82;1.33;;;14.30;94.10;;;;;;4933041;28;20047;-80
2021/04/28 14:34:22;;;;;;;5.68;1.20;;;14.30;93.90;;;;;;4933303;28;20050;-81
2021/04/28 14:36:48;;;;;;;4.28;1.13;;;14.20;94.00;;;;;;4934205;28;20051;-81
2021/04/28 14:39:14;;;;;;;3.53;1.25;;;14.20;94.00;;;;;;4914065;29;20052;-81
2021/04/28 14:41:41;;;;;;;8.00;1.40;;;14.20;94.00;;;;;;4916579;29;20071;-81
2021/04/28 14:44:08;;;;;;;3.05;1.08;;;14.10;93.80;;;;;;4917816;28;20044;-81
2021/04/28 14:46:35;;;;;;;8.63;1.38;;;14.10;93.90;;;;;;4937053;28;20050;-81
2021/04/28 14:49:02;;;;;;;7.60;1.30;;;14.00;93.80;;;;;;4920451;29;20058;-81
2021/04/28 14:51:29;;;;;;;8.43;1.80;;;13.80;94.40;;;;;;4951928;29;20055;-81
2021/04/28 14:53:55;;;;;;;5.20;2.05;;;13.70;94.90;;;;;;4920068;29;20076;-80
2021/04/28 14:56:23;;;;;;;9.85;2.00;;;13.60;95.10;;;;;;4936522;28;20047;-81
2021/04/28 14:58:50;;;;;;;7.00;2.17;;;13.60;95.30;;;;;;4937085;29;20048;-81
2021/04/28 15:01:17;;;;;;;5.75;2.42;;;13.50;95.50;;;;;;4919430;29;20459;-80
2021/04/28 15:03:45;;;;;;;7.47;2.25;;;13.50;95.80;;;;;;4931271;28;20047;-80
2021/04/28 15:06:12;;;;;;;7.00;2.30;;;13.60;95.90;;;;;;4932458;29;20050;-80
2021/04/28 15:08:41;;;;;;;8.38;2.25;;;13.60;95.90;;;;;;4930466;29;20641;-81
2021/04/28 15:11:09;;;;;;;3.53;1.80;;;13.60;95.80;;;;;;4911056;29;20052;-81
2021/04/28 15:13:36;;;;;;;4.03;2.10;;;13.60;95.10;;;;;;4916554;29;20114;-81
2021/04/28 15:16:03;;;;;;;8.32;2.80;;;13.50;95.30;;;;;;4917012;29;20103;-81
2021/04/28 15:18:30;;;;;;;6.55;2.60;;;13.60;95.60;;;;;;4929918;29;20047;-81
2021/04/28 15:20:56;;;;;;;7.60;2.33;;;13.60;95.70;;;;;;4931947;29;20110;-81
2021/04/28 15:23:27;;;;;;;6.75;2.83;;;13.60;95.90;;;;;;4944303;29;20122;-81
2021/04/28 15:25:54;;;;;;;7.18;2.28;;;13.70;95.40;;;;;;4929733;29;20574;-81
2021/04/28 15:28:20;;;;;;;8.15;2.05;;;13.80;95.30;;;;;;4915870;29;20071;-81
2021/04/28 15:30:47;;;;;;;4.25;1.70;;;13.80;95.30;;;;;;4915412;29;20624;-81
2021/04/28 15:33:20;;;;;;;6.35;2.20;;;13.80;94.20;;;;;;4913505;29;20063;-80
2021/04/28 15:35:48;;;;;;;6.20;1.83;;;13.60;93.40;;;;;;4932444;29;20052;-81
2021/04/28 15:38:19;;;;;;;5.25;1.80;;;13.50;93.70;;;;;;4922428;29;20111;-81
2021/04/28 15:40:50;;;;;;;5.05;2.25;;;13.50;93.80;;;;;;4915842;29;20566;-81
2021/04/28 15:43:19;;;;;;;6.22;1.98;;;13.60;94.00;;;;;;4932338;29;20052;-82
2021/04/28 15:45:46;;;;;;;5.95;2.13;;;13.80;94.10;;;;;;4931603;29;20063;-82
2021/04/28 15:48:13;;;;;;;5.38;2.50;;;13.80;94.20;;;;;;4913808;29;20067;-81
2021/04/28 15:50:41;;;;;;;8.63;3.03;;;13.80;94.30;;;;;;4947173;29;20051;-82
2021/04/28 15:53:07;;;;;;;6.38;3.00;;;13.90;94.50;;;;;;4948275;29;20051;-82
2021/04/28 15:55:34;;;;;;;4.78;2.78;;;13.80;94.50;;;;;;4921196;29;20055;-81
2021/04/28 15:58:01;;;;;;;6.82;2.95;;;13.80;94.10;;;;;;4917757;29;20151;-80
2021/04/28 16:00:27;;;;;;;5.75;2.85;;;13.90;94.00;;;;;;4916998;29;20055;-81
2021/04/28 16:02:54;;;;;;;7.80;2.92;;;13.90;94.00;;;;;;4918065;29;20126;-82
2021/04/28 16:05:21;;;;;;;5.80;3.40;;;13.90;94.30;;;;;;4917160;29;20055;-82
2021/04/28 16:07:48;;;;;;;5.80;2.85;;;13.70;93.60;;;;;;4917877;29;20047;-81
2021/04/28 16:10:15;;;;;;;7.28;3.08;;;13.50;93.70;;;;;;4947422;28;20047;-81
2021/04/28 16:12:42;;;;;;;5.28;2.92;;;13.30;93.50;;;;;;4918610;29;20499;-82
2021/04/28 16:15:09;;;;;;;4.25;2.75;;;13.30;93.40;;;;;;4917069;29;20087;-81
2021/04/28 16:17:36;;;;;;;5.63;3.08;;;13.10;94.00;;;;;;4915185;29;20051;-81
2021/04/28 16:20:04;;;;;;;8.55;3.72;;;13.00;94.40;;;;;;4917379;29;20047;-81
2021/04/28 16:22:30;;;;;;;4.20;2.70;;;13.00;94.80;;;;;;4932610;29;20051;-81
2021/04/28 16:24:57;;;;;;;6.30;3.03;;;13.00;95.00;;;;;;4917577;29;20050;-81
2021/04/28 16:27:23;;;;;;;6.35;2.75;;;13.00;94.80;;;;;;4948091;29;20056;-82
2021/04/28 16:29:49;;;;;;;3.83;2.47;;;13.20;94.50;;;;;;4917803;29;20052;-81
2021/04/28 16:32:16;;;;;;;4.50;2.83;;;13.40;94.90;;;;;;4915194;29;20534;-81
2021/04/28 16:34:42;;;;;;;6.22;2.80;;;13.40;94.10;;;;;;4934399;29;20058;-81
2021/04/28 16:37:09;;;;;;;6.90;2.90;;;13.20;94.40;;;;;;4917178;29;20081;-81
2021/04/28 16:39:38;;;;;;;4.50;2.70;;;13.10;94.80;;;;;;4918149;29;20054;-81
2021/04/28 16:42:07;;;;;;;5.72;2.60;;;13.10;95.20;;;;;;4917278;29;20079;-82
2021/04/28 16:44:33;;;;;;;6.82;2.80;;;13.20;95.30;;;;;;4917218;29;20052;-82
2021/04/28 16:47:07;;;;;;;4.93;2.53;;;13.30;95.70;;;;;;4924119;28;20047;-82
2021/04/28 16:49:34;;;;;;;7.25;3.35;;;13.40;95.40;;;;;;4936358;29;20055;-83
2021/04/28 16:52:03;;;;;;;5.70;3.67;;;13.40;95.20;;;;;;4918514;29;20055;-80
2021/04/28 16:54:31;;;;;;;7.00;3.38;;;13.30;95.30;;;;;;4934394;29;20059;-81
2021/04/28 16:56:57;;;;;;;9.02;3.45;;;13.20;95.60;;;;;;4917194;29;20517;-81
2021/04/28 16:59:24;;;;;;;7.30;3.60;;;13.20;95.40;;;;;;4915968;28;20051;-84
2021/04/28 17:01:50;;;;;;;7.05;2.97;;;13.30;95.40;;;;;;4916662;29;20058;-81
2021/04/28 17:04:17;;;;;;;8.07;2.95;;;13.30;95.10;;;;;;4930484;28;20043;-81
2021/04/28 17:06:43;;;;;;;5.25;2.97;;;13.40;95.10;;;;;;4911035;29;20110;-84
2021/04/28 17:09:09;;;;;;;5.05;2.75;;;13.50;94.90;;;;;;4911761;29;20048;-85
2021/04/28 17:11:36;;;;;;;5.57;3.10;;;13.50;94.80;;;;;;4912690;29;20044;-82
2021/04/28 17:14:03;;;;;;;7.45;3.42;;;13.30;94.80;;;;;;4929274;28;20091;-83
2021/04/28 17:16:29;;;;;;;11.10;3.78;;;13.20;94.70;;;;;;4909459;29;20059;-84
2021/04/28 17:18:56;;;;;;;6.97;3.58;;;13.00;94.80;;;;;;4913271;29;20052;-82
2021/04/28 17:21:22;;;;;;;5.90;3.60;;;12.90;95.10;;;;;;4912450;28;20052;-83
2021/04/28 17:23:49;;;;;;;5.35;3.22;;;12.80;95.20;;;;;;4928266;29;20058;-83
2021/04/28 17:26:16;;;;;;;5.88;3.08;;;12.70;95.70;;;;;;4908054;29;20115;-83
2021/04/28 17:28:43;;;;;;;6.13;2.95;;;12.60;96.10;;;;;;4905410;29;20048;-84
2021/04/28 17:31:11;;;;;;;5.85;2.90;;;12.60;96.70;;;;;;4927389;29;20071;-83
2021/04/28 17:33:39;;;;;;;9.00;4.35;;;12.60;97.00;;;;;;4928179;29;20475;-82
2021/04/28 17:36:06;;;;;;;30.58;14.48;;;12.50;97.20;;;;;;4906811;29;20050;-82
2021/04/28 17:38:36;;;;;;;13.10;5.63;;;12.40;97.30;;;;;;4924883;29;20652;-82
2021/04/28 17:41:04;;;;;;;9.27;4.70;;;12.30;97.00;;;;;;4911644;29;20171;-82
2021/04/28 17:43:32;;;;;;;7.00;3.95;;;12.20;97.00;;;;;;4909014;29;20044;-82
2021/04/28 17:46:00;;;;;;;8.45;3.97;;;12.20;96.80;;;;;;4932053;29;20055;-82
2021/04/28 17:48:27;;;;;;;7.88;3.70;;;12.10;96.60;;;;;;4908946;29;20051;-82
2021/04/28 17:50:54;;;;;;;8.73;4.70;;;12.10;96.60;;;;;;4924816;29;20044;-82
2021/04/28 17:53:20;;;;;;;5.40;3.40;;;12.00;96.70;;;;;;4908249;29;20115;-81
2021/04/28 17:55:46;;;;;;;8.02;4.82;;;12.00;96.50;;;;;;4927089;29;20094;-82
2021/04/28 17:58:17;;;;;;;6.75;4.25;;;12.00;96.60;;;;;;4924656;29;20389;-82
2021/04/28 18:00:48;;;;;;;7.03;4.25;;;12.00;96.70;;;;;;4906589;29;20048;-82
2021/04/28 18:03:15;;;;;;;8.07;3.55;;;12.10;96.90;;;;;;4909755;29;20418;-81
2021/04/28 18:05:42;;;;;;;5.95;3.65;;;12.10;96.90;;;;;;4928693;29;20059;-82
2021/04/28 18:08:09;;;;;;;8.45;5.90;;;12.00;97.10;;;;;;4909027;29;20064;-81
2021/04/28 18:10:35;;;;;;;6.55;3.00;;;12.00;97.40;;;;;;4909466;29;20044;-82
2021/04/28 18:13:02;;;;;;;5.28;2.60;;;11.90;97.80;;;;;;4925539;29;20055;-80
2021/04/28 18:15:30;;;;;;;6.93;2.72;;;11.90;98.00;;;;;;4912936;29;20495;-81
2021/04/28 18:17:57;;;;;;;6.05;3.00;;;12.00;97.90;;;;;;4913657;29;20103;-81
2021/04/28 18:20:23;;;;;;;10.35;5.97;;;12.10;97.90;;;;;;4934657;29;20103;-80
2021/04/28 18:22:49;;;;;;;11.23;6.72;;;12.30;97.50;;;;;;4933546;29;20059;-80
2021/04/28 18:25:18;;;;;;;8.70;4.40;;;12.60;97.20;;;;;;4918766;29;20106;-82
2021/04/28 18:27:44;;;;;;;5.03;3.13;;;12.70;96.90;;;;;;4933522;29;20131;-81
2021/04/28 18:30:12;;;;;;;6.28;2.30;;;12.90;96.10;;;;;;4915806;29;20522;-81
2021/04/28 18:32:39;;;;;;;6.75;3.90;;;13.10;95.90;;;;;;4915516;29;20103;-81
2021/04/28 18:35:08;;;;;;;7.90;2.85;;;13.10;95.90;;;;;;4933494;29;20050;-82
2021/04/28 18:37:35;;;;;;;9.23;4.10;;;13.20;96.00;;;;;;4933811;29;20064;-80
2021/04/28 18:40:03;;;;;;;4.75;1.77;;;13.10;96.40;;;;;;4918258;29;20064;-81
2021/04/28 18:42:30;;;;;;;7.05;3.10;;;13.00;96.60;;;;;;4915613;29;20055;-81
2021/04/28 18:44:57;;;;;;;8.40;4.40;;;12.90;96.90;;;;;;4915959;29;20060;-81
2021/04/28 18:47:23;;;;;;;9.40;4.18;;;12.70;97.30;;;;;;4933949;29;20058;-82
2021/04/28 18:49:50;;;;;;;8.70;4.43;;;12.50;97.60;;;;;;4917252;29;20051;-80
2021/04/28 18:52:16;;;;;;;7.68;4.22;;;12.40;97.70;;;;;;4933909;29;20103;-80
2021/04/28 18:54:44;;;;;;;7.38;4.07;;;12.20;98.00;;;;;;4911326;29;20458;-80
2021/04/28 18:57:10;;;;;;;7.75;3.65;;;12.20;98.10;;;;;;4915623;29;20066;-80
2021/04/28 18:59:37;;;;;;;8.02;4.65;;;12.10;98.40;;;;;;4915047;29;20503;-80
2021/04/28 19:02:03;;;;;;;9.45;3.63;;;12.00;98.50;;;;;;4919431;29;20047;-80
2021/04/28 19:04:31;;;;;;;6.97;3.25;;;11.90;98.70;;;;;;4924619;29;20063;-80
2021/04/28 19:06:58;;;;;;;7.47;3.33;;;11.80;98.70;;;;;;4932243;29;20047;-80
2021/04/28 19:09:24;;;;;;;10.98;6.53;;;11.70;98.90;;;;;;4930951;29;20086;-80
2021/04/28 19:11:51;;;;;;;10.02;7.07;;;11.50;99.10;;;;;;4914755;29;20063;-80
2021/04/28 19:14:20;;;;;;;10.90;4.85;;;11.50;99.20;;;;;;4915416;29;20130;-80
2021/04/28 19:16:47;;;;;;;6.78;5.78;;;11.40;99.30;;;;;;4933846;29;20103;-80
2021/04/28 19:19:13;;;;;;;9.18;5.53;;;11.30;99.50;;;;;;4926700;29;20052;-80
2021/04/28 19:21:40;;;;;;;11.45;5.95;;;11.10;99.90;;;;;;4918070;29;20047;-80
2021/04/28 19:24:07;;;;;;;7.80;6.13;;;11.00;99.90;;;;;;4910400;29;20530;-79
2021/04/28 19:26:35;;;;;;;10.23;6.32;;;11.00;99.90;;;;;;4917188;29;20459;-80
2021/04/28 19:29:03;;;;;;;12.93;7.60;;;10.90;99.90;;;;;;4916376;29;20055;-80
2021/04/28 19:31:30;;;;;;;;;;;10.80;99.90;;;;;;4911682;29;20044;-80
2021/04/28 19:33:58;;;;;;;13.18;7.95;;;10.80;99.90;;;;;;4930322;29;19938;-81
2021/04/28 19:36:25;;;;;;;12.73;7.40;;;10.70;99.90;;;;;;4932869;29;20051;-81
2021/04/28 19:38:51;;;;;;;14.57;8.70;;;10.70;99.90;;;;;;4916029;29;20052;-81
2021/04/28 19:41:17;;;;;;;14.02;9.80;;;10.70;99.90;;;;;;4932840;29;20515;-81
2021/04/28 19:43:44;;;;;;;15.60;9.70;;;10.70;99.90;;;;;;4930126;29;20531;-80
2021/04/28 19:46:10;;;;;;;16.40;10.88;;;10.60;99.90;;;;;;4916220;29;20080;-82
2021/04/28 19:48:37;;;;;;;20.77;11.50;;;10.60;99.90;;;;;;4916929;29;20051;-80
2021/04/28 19:51:03;;;;;;;16.80;12.20;;;10.60;99.90;;;;;;4932059;29;20043;-80
2021/04/28 19:53:30;;;;;;;20.67;13.13;;;10.60;99.90;;;;;;4931839;29;20062;-80
2021/04/28 19:55:56;;;;;;;18.23;14.65;;;10.50;99.90;;;;;;4933355;29;20055;-80
2021/04/28 19:58:24;;;;;;;19.27;14.85;;;10.50;99.90;;;;;;4915140;29;20082;-82
2021/04/28 20:00:52;;;;;;;19.67;12.02;;;10.40;99.90;;;;;;4916556;29;20071;-82
2021/04/28 20:03:20;;;;;;;17.95;12.15;;;10.40;99.90;;;;;;4915663;29;20396;-81
2021/04/28 20:05:52;;;;;;;18.40;12.10;;;10.40;99.90;;;;;;4914724;29;20044;-80
2021/04/28 20:08:24;;;;;;;15.13;11.57;;;10.40;99.90;;;;;;4914506;29;20519;-80
2021/04/28 20:10:52;;;;;;;14.82;9.05;;;10.40;99.90;;;;;;4931415;29;20047;-81
2021/04/28 20:13:19;;;;;;;16.17;7.80;;;10.40;99.90;;;;;;4930751;29;20048;-81
2021/04/28 20:15:46;;;;;;;11.60;6.85;;;10.40;99.90;;;;;;4932612;29;20043;-80
2021/04/28 20:18:14;;;;;;;10.15;6.55;;;10.30;99.90;;;;;;4914798;29;20043;-80
2021/04/28 20:20:41;;;;;;;9.25;6.32;;;10.30;99.90;;;;;;4936257;29;20208;-80
2021/04/28 20:23:08;;;;;;;8.90;5.57;;;10.30;99.90;;;;;;4932750;29;20062;-81
2021/04/28 20:25:34;;;;;;;10.38;6.03;;;10.30;99.90;;;;;;4943962;29;20043;-80
2021/04/28 20:28:01;;;;;;;7.72;6.00;;;10.30;99.90;;;;;;4915921;29;20052;-80
2021/04/28 20:30:28;;;;;;;12.32;6.55;;;10.30;99.90;;;;;;4930833;29;20411;-80